Tokyo, Japan
Current Conditions -  °F | °C
As of 1:30 AM on Sunday 23 Nov 2014 (Local Time) from RJTT Reporting Station
Few Clouds Few Clouds  
Wind Chill: 54°   Ceiling: Unl
Heat Index: 54°   Visibility: 5mi
Dew Point: 45°   Wind: 6mph
Humidity: 72%   Direction: 300°WNW
Pressure: 30.15"   Gusts: NA
Location:  35.67°N, 139.77°E
Report Text: RJTT 221630Z 30005KT 8000 FEW030 12/07 Q1021 NOSIG
Loading
Personal Weather Stations






























Interactive Weather Map New forecast layout! Learn more

10-Day Weather Forecast

Advertisements
Track Severe Weather on mobile